Time;durP1;ratioP1;P1;durP2;ratioP2;P2;SDS_P1;SDS_P2;PMS_P1;PMS_P2;Temp;Humidity;BMP_temperature;BMP_pressure;BME280_temperature;BME280_humidity;BME280_pressure;Samples;Min_cycle;Max_cycle;Signal;HPM_P1;HPM_P2
2022/01/22 00:00:37;;;;;;;13.45;9.43;;;;;;;;;;2122851;28;20466;-44
2022/01/22 00:01:38;;;;;;;14.43;9.40;;;;;;;;;;2118317;27;20048;-44
2022/01/22 00:02:39;;;;;;;14.98;8.93;;;;;;;;;;2122714;28;20039;-46
2022/01/22 00:03:40;;;;;;;14.02;10.07;;;;;;;;;;2123099;28;20103;-49
2022/01/22 00:04:42;;;;;;;17.52;9.63;;;;;;;;;;2119674;27;20052;-48
2022/01/22 00:05:43;;;;;;;12.20;9.10;;;;;;;;;;2122971;28;20279;-45
2022/01/22 00:06:45;;;;;;;14.82;9.10;;;;;;;;;;2123179;27;20050;-45
2022/01/22 00:07:46;;;;;;;17.85;10.15;;;;;;;;;;2115222;27;20139;-44
2022/01/22 00:08:47;;;;;;;14.90;8.82;;;;;;;;;;2114322;28;20135;-45
2022/01/22 00:09:51;;;;;;;14.20;7.60;;;;;;;;;;2116341;27;20077;-44
2022/01/22 00:10:52;;;;;;;17.63;10.32;;;;;;;;;;2121035;28;20484;-44
2022/01/22 00:11:55;;;;;;;17.40;9.57;;;;;;;;;;2122740;28;20051;-44
2022/01/22 00:13:08;;;;;;;15.32;10.45;;;;;;;;;;2120231;27;20083;-45
2022/01/22 00:14:24;;;;;;;18.33;9.90;;;;;;;;;;2114402;28;20139;-45
2022/01/22 00:15:26;;;;;;;15.18;9.57;;;;;;;;;;2113599;27;20131;-46
2022/01/22 00:16:27;;;;;;;19.75;10.10;;;;;;;;;;2115215;28;20138;-44
2022/01/22 00:17:28;;;;;;;15.85;10.02;;;;;;;;;;2114358;28;20047;-45
2022/01/22 00:18:29;;;;;;;15.13;9.98;;;;;;;;;;2116854;27;20539;-44
2022/01/22 00:19:30;;;;;;;12.93;8.65;;;;;;;;;;2121495;28;20074;-44
2022/01/22 00:20:31;;;;;;;14.40;8.68;;;;;;;;;;2122021;28;20066;-45
2022/01/22 00:21:32;;;;;;;15.50;9.82;;;;;;;;;;2119056;27;20043;-45
2022/01/22 00:22:35;;;;;;;15.50;9.20;;;;;;;;;;2122641;28;20047;-45
2022/01/22 00:23:39;;;;;;;15.00;9.23;;;;;;;;;;2122584;28;20116;-47
2022/01/22 00:24:40;;;;;;;14.45;9.30;;;;;;;;;;2114690;28;20130;-45
2022/01/22 00:25:41;;;;;;;17.33;9.07;;;;;;;;;;2114262;28;20051;-45
2022/01/22 00:26:43;;;;;;;17.77;10.02;;;;;;;;;;2116445;27;20039;-45
2022/01/22 00:27:45;;;;;;;14.63;9.00;;;;;;;;;;2120077;28;20133;-44
2022/01/22 00:28:46;;;;;;;13.65;8.80;;;;;;;;;;2122553;28;20130;-45
2022/01/22 00:29:47;;;;;;;14.73;8.52;;;;;;;;;;2119465;27;20358;-46
2022/01/22 00:30:49;;;;;;;16.40;9.73;;;;;;;;;;2121186;28;20518;-44
2022/01/22 00:31:49;;;;;;;13.38;7.80;;;;;;;;;;2122698;28;20078;-44
2022/01/22 00:32:51;;;;;;;14.95;10.73;;;;;;;;;;2119556;27;20100;-44
2022/01/22 00:33:52;;;;;;;12.93;8.90;;;;;;;;;;2122727;28;20472;-46
2022/01/22 00:34:53;;;;;;;14.75;9.32;;;;;;;;;;2122727;28;20062;-44
2022/01/22 00:35:54;;;;;;;15.93;9.52;;;;;;;;;;2118442;27;20118;-44
2022/01/22 00:36:55;;;;;;;16.55;10.15;;;;;;;;;;2114231;28;20044;-44
2022/01/22 00:37:56;;;;;;;13.32;7.85;;;;;;;;;;2116325;27;20122;-48
2022/01/22 00:38:57;;;;;;;14.73;9.02;;;;;;;;;;2117903;27;20043;-48
2022/01/22 00:39:58;;;;;;;15.48;9.43;;;;;;;;;;2122593;28;20053;-48
2022/01/22 00:40:59;;;;;;;15.23;9.48;;;;;;;;;;2120509;27;20039;-47
2022/01/22 00:42:00;;;;;;;16.95;10.60;;;;;;;;;;2115306;28;20098;-48
2022/01/22 00:43:02;;;;;;;14.70;10.30;;;;;;;;;;2114124;28;20501;-49
2022/01/22 00:44:03;;;;;;;14.43;8.35;;;;;;;;;;2114239;27;20474;-48
2022/01/22 00:45:05;;;;;;;16.35;10.90;;;;;;;;;;2121786;28;20465;-49
2022/01/22 00:46:06;;;;;;;18.02;9.10;;;;;;;;;;2122509;28;20503;-48
2022/01/22 00:47:07;;;;;;;13.18;8.45;;;;;;;;;;2118074;27;20134;-48
2022/01/22 00:48:08;;;;;;;13.18;7.60;;;;;;;;;;2122579;28;20068;-48
2022/01/22 00:49:10;;;;;;;14.88;9.18;;;;;;;;;;2122424;27;20055;-48
2022/01/22 00:50:13;;;;;;;17.13;8.88;;;;;;;;;;2119559;27;20053;-48
2022/01/22 00:51:14;;;;;;;14.63;9.32;;;;;;;;;;2122407;28;20489;-47
2022/01/22 00:52:15;;;;;;;13.88;9.75;;;;;;;;;;2121873;27;20484;-48
2022/01/22 00:53:16;;;;;;;16.63;8.43;;;;;;;;;;2115241;28;20074;-48
2022/01/22 00:54:17;;;;;;;15.20;8.77;;;;;;;;;;2114143;28;20131;-48
2022/01/22 00:55:19;;;;;;;13.82;8.77;;;;;;;;;;2114010;27;20078;-47
2022/01/22 00:56:20;;;;;;;12.88;8.63;;;;;;;;;;2121019;28;20583;-49
2022/01/22 00:57:21;;;;;;;17.17;10.40;;;;;;;;;;2122662;28;20068;-47
2022/01/22 00:58:23;;;;;;;14.93;7.82;;;;;;;;;;2118174;27;20051;-48
2022/01/22 00:59:24;;;;;;;15.25;9.60;;;;;;;;;;2122688;28;20122;-47
2022/01/22 01:00:25;;;;;;;14.30;8.65;;;;;;;;;;2122446;28;20479;-47
2022/01/22 01:01:28;;;;;;;14.07;9.20;;;;;;;;;;2116591;27;20043;-48
2022/01/22 01:02:29;;;;;;;13.57;9.40;;;;;;;;;;2114043;28;20051;-49
2022/01/22 01:03:33;;;;;;;14.37;8.23;;;;;;;;;;2116126;27;20047;-47
2022/01/22 01:04:35;;;;;;;14.68;9.27;;;;;;;;;;2119860;28;20279;-45
2022/01/22 01:05:37;;;;;;;15.52;8.75;;;;;;;;;;2122443;28;20062;-45
2022/01/22 01:06:38;;;;;;;12.48;9.00;;;;;;;;;;2118805;27;20051;-44
2022/01/22 01:07:40;;;;;;;16.90;8.48;;;;;;;;;;2116536;28;20047;-44
2022/01/22 01:08:42;;;;;;;10.43;8.43;;;;;;;;;;2115468;28;20567;-44
2022/01/22 01:09:44;;;;;;;18.23;8.82;;;;;;;;;;2118635;27;20046;-45
2022/01/22 01:10:45;;;;;;;12.40;8.90;;;;;;;;;;2123956;28;20134;-44
2022/01/22 01:11:50;;;;;;;15.40;8.52;;;;;;;;;;2123805;28;20135;-44
2022/01/22 01:12:52;;;;;;;13.40;8.77;;;;;;;;;;2119947;28;20049;-44
2022/01/22 01:13:58;;;;;;;13.48;8.75;;;;;;;;;;2124109;28;20130;-45
2022/01/22 01:15:13;;;;;;;17.42;7.97;;;;;;;;;;2122901;27;20070;-44
2022/01/22 01:16:18;;;;;;;16.40;7.72;;;;;;;;;;2118106;28;20370;-45
2022/01/22 01:17:45;;;;;;;12.40;5.85;;;;;;;;;;2124068;28;20091;-44
2022/01/22 01:32:19;;;;;;;10.80;6.47;;;;;;;;;;2122737;27;20043;-44
2022/01/22 01:33:27;;;;;;;12.88;7.93;;;;;;;;;;2123972;28;20070;-44
2022/01/22 01:34:28;;;;;;;8.30;4.47;;;;;;;;;;2123329;28;20122;-45
2022/01/22 01:35:30;;;;;;;12.68;7.78;;;;;;;;;;2119723;28;20047;-44
2022/01/22 01:36:31;;;;;;;12.25;6.70;;;;;;;;;;2123642;28;20539;-44
2022/01/22 01:37:32;;;;;;;10.60;6.60;;;;;;;;;;2123480;27;20126;-44
2022/01/22 01:38:38;;;;;;;8.27;5.82;;;;;;;;;;2120834;28;20059;-45
2022/01/22 01:39:40;;;;;;;11.43;6.25;;;;;;;;;;2123742;28;20516;-45
2022/01/22 01:40:44;;;;;;;;;;;;;;;;;;2122246;27;20052;-44
2022/01/22 01:41:52;;;;;;;10.88;6.13;;;;;;;;;;2123002;28;20009;-45
2022/01/22 01:43:05;;;;;;;11.70;6.85;;;;;;;;;;2123932;28;20172;-44
2022/01/22 01:44:06;;;;;;;11.63;6.28;;;;;;;;;;2116378;28;20122;-44
2022/01/22 01:45:08;;;;;;;10.15;6.80;;;;;;;;;;2115166;28;20511;-44
2022/01/22 01:46:09;;;;;;;9.65;6.72;;;;;;;;;;2115748;27;20454;-44
2022/01/22 01:47:14;;;;;;;9.80;6.87;;;;;;;;;;2121856;28;20100;-45
2022/01/22 01:48:20;;;;;;;11.40;6.88;;;;;;;;;;2123812;28;20317;-45
2022/01/22 01:49:22;;;;;;;11.43;7.22;;;;;;;;;;2117847;27;20040;-44
2022/01/22 01:50:23;;;;;;;14.18;8.38;;;;;;;;;;2123681;28;20468;-44
2022/01/22 01:51:27;;;;;;;9.32;6.15;;;;;;;;;;2123731;28;20058;-44
2022/01/22 01:52:35;;;;;;;12.20;7.63;;;;;;;;;;2118040;28;20419;-44
2022/01/22 01:53:50;;;;;;;11.85;6.80;;;;;;;;;;2123756;28;20055;-44
2022/01/22 01:55:02;;;;;;;11.40;7.60;;;;;;;;;;2121881;27;20122;-44
2022/01/22 01:57:24;;;;;;;9.48;5.80;;;;;;;;;;2115101;28;20457;-44
2022/01/22 01:57:38;;;;;;;12.48;7.10;;;;;;;;;;2114466;27;20122;-45
2022/01/22 01:58:39;;;;;;;12.43;6.32;;;;;;;;;;2116162;28;20130;-45
2022/01/22 01:59:42;;;;;;;11.05;7.47;;;;;;;;;;2115322;28;20123;-45
2022/01/22 02:00:44;;;;;;;9.48;5.80;;;;;;;;;;2118318;27;20054;-44
2022/01/22 02:01:45;;;;;;;13.05;6.95;;;;;;;;;;2115107;28;20499;-45
2022/01/22 02:02:47;;;;;;;14.52;7.28;;;;;;;;;;2115286;28;20349;-46
2022/01/22 02:03:48;;;;;;;;;;;;;;;;;;2118629;28;20092;-45
2022/01/22 02:04:49;;;;;;;11.38;6.90;;;;;;;;;;2123649;28;20376;-44
2022/01/22 02:05:50;;;;;;;9.82;6.60;;;;;;;;;;2123703;27;20479;-44
2022/01/22 02:06:52;;;;;;;11.95;6.47;;;;;;;;;;2120624;28;20047;-44
2022/01/22 02:07:54;;;;;;;12.02;6.72;;;;;;;;;;2123621;28;20134;-44
2022/01/22 02:08:56;;;;;;;11.10;7.28;;;;;;;;;;2121403;27;20047;-45
2022/01/22 02:09:58;;;;;;;11.32;7.50;;;;;;;;;;2115909;28;20457;-45
2022/01/22 02:11:01;;;;;;;10.02;6.60;;;;;;;;;;2115061;28;20184;-44
2022/01/22 02:12:07;;;;;;;14.30;7.07;;;;;;;;;;2118130;27;20050;-45
2022/01/22 02:23:42;;;;;;;11.82;6.28;;;;;;;;;;2083623;28;20048;-45
2022/01/22 02:24:44;;;;;;;12.05;7.93;;;;;;;;;;2107801;28;20054;-44
2022/01/22 02:25:45;;;;;;;11.57;7.05;;;;;;;;;;2116987;27;20069;-45
2022/01/22 02:26:46;;;;;;;12.73;7.10;;;;;;;;;;2115860;28;20051;-44
2022/01/22 02:27:47;;;;;;;11.02;7.30;;;;;;;;;;2115004;28;20151;-44
2022/01/22 02:28:51;;;;;;;11.38;6.55;;;;;;;;;;2118494;27;20441;-44
2022/01/22 02:29:51;;;;;;;10.00;5.63;;;;;;;;;;2122077;28;20519;-44
2022/01/22 02:30:59;;;;;;;14.10;6.70;;;;;;;;;;2123597;28;20047;-44
2022/01/22 02:32:18;;;;;;;13.93;7.20;;;;;;;;;;2120374;27;20043;-47
2022/01/22 02:33:30;;;;;;;12.80;5.88;;;;;;;;;;2123368;28;20531;-47
2022/01/22 02:34:38;;;;;;;8.13;5.28;;;;;;;;;;2121741;27;20471;-48
2022/01/22 02:35:47;;;;;;;10.90;6.70;;;;;;;;;;2114698;28;20276;-48
2022/01/22 02:36:59;;;;;;;11.63;6.07;;;;;;;;;;2114531;28;20438;-48
2022/01/22 02:38:07;;;;;;;13.02;6.93;;;;;;;;;;2119969;28;20171;-47
2022/01/22 02:39:13;;;;;;;11.55;6.65;;;;;;;;;;2123389;28;20119;-48
2022/01/22 02:40:21;;;;;;;11.75;5.82;;;;;;;;;;2118824;28;20126;-47
2022/01/22 02:41:24;;;;;;;12.48;6.22;;;;;;;;;;2114827;28;20126;-48
2022/01/22 02:42:29;;;;;;;13.82;6.82;;;;;;;;;;2114799;28;20142;-47
2022/01/22 02:43:31;;;;;;;11.10;7.20;;;;;;;;;;2119336;28;20094;-49
2022/01/22 02:44:33;;;;;;;11.40;5.35;;;;;;;;;;2123423;28;20043;-47
2022/01/22 02:45:35;;;;;;;12.27;6.43;;;;;;;;;;2122858;27;20130;-48
2022/01/22 02:46:38;;;;;;;10.15;6.13;;;;;;;;;;2120509;28;20547;-48
2022/01/22 02:47:39;;;;;;;9.77;6.05;;;;;;;;;;2123482;28;20591;-48
2022/01/22 02:48:40;;;;;;;10.57;6.20;;;;;;;;;;2121438;27;20043;-47
2022/01/22 02:49:41;;;;;;;10.40;6.40;;;;;;;;;;2121971;28;20055;-48
2022/01/22 02:50:42;;;;;;;14.70;6.65;;;;;;;;;;2123203;28;20138;-47
2022/01/22 02:51:43;;;;;;;10.50;6.22;;;;;;;;;;2119896;27;20258;-47
2022/01/22 02:52:46;;;;;;;10.18;6.55;;;;;;;;;;2114731;28;20078;-48
2022/01/22 02:53:49;;;;;;;13.05;6.38;;;;;;;;;;2114836;28;20188;-49
2022/01/22 02:54:51;;;;;;;9.65;5.65;;;;;;;;;;2118147;28;20054;-47
2022/01/22 02:55:52;;;;;;;12.13;6.82;;;;;;;;;;2123147;28;20142;-48
2022/01/22 02:56:54;;;;;;;12.68;7.38;;;;;;;;;;2120221;27;20138;-48
2022/01/22 02:57:55;;;;;;;9.32;5.13;;;;;;;;;;2120566;28;20130;-47
2022/01/22 02:58:58;;;;;;;8.50;5.85;;;;;;;;;;2123355;28;20129;-47
2022/01/22 03:00:00;;;;;;;13.88;6.80;;;;;;;;;;2121367;27;20122;-47
2022/01/22 03:01:01;;;;;;;12.48;6.72;;;;;;;;;;2119757;28;20078;-48
2022/01/22 03:02:05;;;;;;;10.63;5.80;;;;;;;;;;2114716;28;20075;-47
2022/01/22 03:03:06;;;;;;;13.15;6.95;;;;;;;;;;2118434;27;20123;-47
2022/01/22 03:04:08;;;;;;;11.80;5.65;;;;;;;;;;2123145;28;20397;-49
2022/01/22 03:05:09;;;;;;;14.23;5.90;;;;;;;;;;2122771;27;20122;-47
2022/01/22 03:06:11;;;;;;;9.10;6.22;;;;;;;;;;2120180;27;20134;-47
2022/01/22 03:07:11;;;;;;;10.77;5.05;;;;;;;;;;2123235;28;20507;-48
2022/01/22 03:08:14;;;;;;;10.70;5.83;;;;;;;;;;2121837;27;20062;-47
2022/01/22 03:09:17;;;;;;;11.63;6.32;;;;;;;;;;2115445;28;20124;-47
2022/01/22 03:10:21;;;;;;;10.02;5.40;;;;;;;;;;2114768;28;20130;-47
2022/01/22 03:11:25;;;;;;;14.93;6.45;;;;;;;;;;2117342;27;20158;-48
2022/01/22 03:12:50;;;;;;;10.93;4.90;;;;;;;;;;2122584;28;20046;-48
2022/01/22 03:15:32;;;;;;;9.10;5.25;;;;;;;;;;2121837;28;20075;-48
2022/01/22 03:16:50;;;;;;;;;;;;;;;;;;2123711;27;20047;-47
2022/01/22 03:18:00;;;;;;;7.93;5.20;;;;;;;;;;2119909;28;20005;-48
2022/01/22 03:19:06;;;;;;;10.10;6.00;;;;;;;;;;2123316;28;20126;-47
2022/01/22 03:20:22;;;;;;;9.75;5.35;;;;;;;;;;2119885;27;20130;-47
2022/01/22 03:21:40;;;;;;;12.77;6.93;;;;;;;;;;2123137;28;20039;-47
2022/01/22 03:23:04;;;;;;;10.95;6.38;;;;;;;;;;2119250;27;20126;-44
2022/01/22 03:28:03;;;;;;;10.32;6.45;;;;;;;;;;2116627;27;20146;-45
2022/01/22 03:29:08;;;;;;;8.50;5.10;;;;;;;;;;2115214;28;20123;-45
2022/01/22 03:30:09;;;;;;;7.70;5.85;;;;;;;;;;2113779;28;20132;-44
2022/01/22 03:31:10;;;;;;;11.80;6.40;;;;;;;;;;2115369;27;20075;-44
2022/01/22 03:32:12;;;;;;;9.43;5.75;;;;;;;;;;2121703;28;20495;-44
2022/01/22 03:33:14;;;;;;;10.00;6.25;;;;;;;;;;2123155;28;20096;-49
2022/01/22 03:34:15;;;;;;;9.68;4.97;;;;;;;;;;2121029;27;20187;-47
2022/01/22 03:35:26;;;;;;;10.60;5.15;;;;;;;;;;2123048;28;20078;-47
2022/01/22 03:36:29;;;;;;;8.25;4.88;;;;;;;;;;2121362;27;20175;-47
2022/01/22 03:37:30;;;;;;;7.97;4.80;;;;;;;;;;2119772;28;20039;-45
2022/01/22 03:38:31;;;;;;;11.45;6.45;;;;;;;;;;2122999;28;20043;-45
2022/01/22 03:39:33;;;;;;;13.02;5.53;;;;;;;;;;2120272;27;20069;-44
2022/01/22 03:40:34;;;;;;;12.48;7.68;;;;;;;;;;2115216;28;20046;-44
2022/01/22 03:41:35;;;;;;;14.77;6.50;;;;;;;;;;2114594;28;20492;-44
2022/01/22 03:42:36;;;;;;;9.13;5.68;;;;;;;;;;2117383;27;20485;-44
2022/01/22 03:43:38;;;;;;;10.70;5.50;;;;;;;;;;2122689;28;20070;-44
2022/01/22 03:44:39;;;;;;;12.93;6.45;;;;;;;;;;2123132;28;20375;-44
2022/01/22 03:45:41;;;;;;;14.80;6.63;;;;;;;;;;2119496;27;20458;-44
2022/01/22 03:46:42;;;;;;;9.90;5.75;;;;;;;;;;2122840;28;20183;-44
2022/01/22 03:47:44;;;;;;;11.80;5.40;;;;;;;;;;2123164;27;20047;-44
2022/01/22 03:48:46;;;;;;;13.07;4.55;;;;;;;;;;2115629;27;20138;-44
2022/01/22 03:49:47;;;;;;;8.73;5.50;;;;;;;;;;2114400;28;20057;-44
2022/01/22 03:50:49;;;;;;;5.90;3.83;;;;;;;;;;2116304;27;20571;-44
2022/01/22 03:51:50;;;;;;;11.27;5.22;;;;;;;;;;2119903;28;20084;-44
2022/01/22 03:52:51;;;;;;;12.32;6.65;;;;;;;;;;2122983;28;20091;-44
2022/01/22 03:53:52;;;;;;;10.77;5.20;;;;;;;;;;2122070;27;20442;-45
2022/01/22 03:54:54;;;;;;;13.25;5.82;;;;;;;;;;2121797;28;20491;-44
2022/01/22 03:56:02;;;;;;;8.77;5.43;;;;;;;;;;2122763;28;20129;-43
2022/01/22 03:57:03;;;;;;;10.15;4.65;;;;;;;;;;2119061;27;20482;-44
2022/01/22 03:58:04;;;;;;;9.07;4.97;;;;;;;;;;2114368;28;20075;-44
2022/01/22 03:59:06;;;;;;;9.30;4.72;;;;;;;;;;2115100;27;20047;-44
2022/01/22 04:00:07;;;;;;;7.13;4.88;;;;;;;;;;2115161;28;20173;-44
2022/01/22 04:01:36;;;;;;;9.35;5.05;;;;;;;;;;2114418;28;20119;-45
2022/01/22 04:03:10;;;;;;;8.32;4.45;;;;;;;;;;2119306;27;20039;-45
2022/01/22 04:04:13;;;;;;;9.43;4.88;;;;;;;;;;2122718;28;20543;-44
2022/01/22 04:05:14;;;;;;;12.40;4.97;;;;;;;;;;2119012;27;20481;-45
2022/01/22 04:06:47;;;;;;;9.50;5.95;;;;;;;;;;2114997;28;20079;-45
2022/01/22 04:09:07;;;;;;;10.60;4.80;;;;;;;;;;2110753;28;20083;-44
2022/01/22 04:10:10;;;;;;;10.10;4.30;;;;;;;;;;2114418;28;20132;-44
2022/01/22 04:11:14;;;;;;;8.27;3.90;;;;;;;;;;2115562;27;20071;-44
2022/01/22 04:12:20;;;;;;;9.20;4.82;;;;;;;;;;2114372;28;20054;-44
2022/01/22 04:13:28;;;;;;;9.95;4.80;;;;;;;;;;2116562;27;20078;-44
2022/01/22 04:14:33;;;;;;;7.15;3.95;;;;;;;;;;2119651;28;20134;-45
2022/01/22 04:15:38;;;;;;;9.45;5.03;;;;;;;;;;2122914;28;20078;-44
2022/01/22 04:16:45;;;;;;;9.40;4.97;;;;;;;;;;2117137;27;20290;-45
2022/01/22 04:25:48;;;;;;;10.75;5.25;;;;;;;;;;2119307;28;20515;-44
2022/01/22 04:26:54;;;;;;;12.07;5.60;;;;;;;;;;2122763;28;20495;-44
2022/01/22 04:27:56;;;;;;;7.93;4.38;;;;;;;;;;2120461;27;20078;-45
2022/01/22 04:28:57;;;;;;;;;;;;;;;;;;2114589;28;20506;-45
2022/01/22 04:29:59;;;;;;;9.15;4.18;;;;;;;;;;2114516;28;19924;-45
2022/01/22 04:31:00;;;;;;;6.57;4.10;;;;;;;;;;2118082;27;20054;-45
2022/01/22 04:32:01;;;;;;;8.20;5.10;;;;;;;;;;2122956;28;20039;-45
2022/01/22 04:33:04;;;;;;;8.95;4.38;;;;;;;;;;2122748;27;20641;-44
2022/01/22 04:34:05;;;;;;;11.68;4.78;;;;;;;;;;2118983;27;20074;-44
2022/01/22 04:35:06;;;;;;;10.10;5.30;;;;;;;;;;2122868;28;20053;-44
2022/01/22 04:36:07;;;;;;;8.40;3.55;;;;;;;;;;2121891;27;20078;-44
2022/01/22 04:37:09;;;;;;;7.53;4.53;;;;;;;;;;2120424;28;20563;-45
2022/01/22 04:38:10;;;;;;;12.90;5.53;;;;;;;;;;2122756;28;20051;-44
2022/01/22 04:39:11;;;;;;;7.28;4.30;;;;;;;;;;2119440;27;20385;-45
2022/01/22 04:40:12;;;;;;;12.77;5.03;;;;;;;;;;2121336;28;20488;-44
2022/01/22 04:41:14;;;;;;;14.85;6.57;;;;;;;;;;2122533;27;20086;-45
2022/01/22 04:42:16;;;;;;;8.40;4.70;;;;;;;;;;2120455;27;20050;-45
2022/01/22 04:43:18;;;;;;;;;;;;;;;;;;2124592;28;20126;-45
2022/01/22 04:44:20;;;;;;;9.80;4.10;;;;;;;;;;2123666;27;19957;-44
2022/01/22 04:45:28;;;;;;;7.93;3.92;;;;;;;;;;2120014;28;20414;-44
2022/01/22 04:46:49;;;;;;;11.25;5.05;;;;;;;;;;2124092;28;20177;-44
2022/01/22 04:47:56;;;;;;;10.75;4.82;;;;;;;;;;2121135;27;20550;-45
2022/01/22 04:49:08;;;;;;;8.88;5.47;;;;;;;;;;2115749;28;20050;-44
2022/01/22 04:55:24;;;;;;;7.60;3.65;;;;;;;;;;2124219;28;20134;-44
2022/01/22 04:56:25;;;;;;;6.57;3.20;;;;;;;;;;2120524;27;20072;-44
2022/01/22 04:57:27;;;;;;;9.80;4.43;;;;;;;;;;2124156;28;20047;-45
2022/01/22 04:58:28;;;;;;;8.02;3.88;;;;;;;;;;2124162;28;20122;-44
2022/01/22 04:59:29;;;;;;;9.32;4.50;;;;;;;;;;2121277;27;20403;-44
2022/01/22 05:00:31;;;;;;;7.15;2.70;;;;;;;;;;2123917;28;20051;-44
2022/01/22 05:01:32;;;;;;;;;;;;;;;;;;2123239;27;20064;-44
2022/01/22 05:02:33;;;;;;;5.65;2.78;;;;;;;;;;2120898;28;19919;-45
2022/01/22 05:03:34;;;;;;;6.73;3.83;;;;;;;;;;2123964;28;20054;-44
2022/01/22 05:04:35;;;;;;;10.82;4.60;;;;;;;;;;2123198;27;20130;-44
2022/01/22 05:05:37;;;;;;;8.13;4.07;;;;;;;;;;2122473;28;20054;-44
2022/01/22 05:06:37;;;;;;;8.98;4.43;;;;;;;;;;2123967;28;20283;-44
2022/01/22 05:07:39;;;;;;;8.73;4.50;;;;;;;;;;2118454;27;20077;-44
2022/01/22 05:08:40;;;;;;;7.53;3.45;;;;;;;;;;2123858;28;20066;-44
2022/01/22 05:09:41;;;;;;;8.00;4.20;;;;;;;;;;2124017;28;20131;-44
2022/01/22 05:10:42;;;;;;;8.65;4.50;;;;;;;;;;2120699;27;20096;-44
2022/01/22 05:11:44;;;;;;;9.55;4.43;;;;;;;;;;2124036;28;20068;-46
2022/01/22 05:12:45;;;;;;;9.95;4.90;;;;;;;;;;2124260;27;20051;-44
2022/01/22 05:13:46;;;;;;;8.25;3.75;;;;;;;;;;2116578;27;20545;-44
2022/01/22 05:14:47;;;;;;;11.13;5.03;;;;;;;;;;2115519;28;20135;-44
2022/01/22 05:15:48;;;;;;;8.67;3.77;;;;;;;;;;2117237;27;20043;-44
2022/01/22 05:16:49;;;;;;;8.82;4.80;;;;;;;;;;2123058;28;20062;-45
2022/01/22 05:17:50;;;;;;;8.15;4.70;;;;;;;;;;2123909;28;20488;-45
2022/01/22 05:18:56;;;;;;;8.32;4.18;;;;;;;;;;2120768;27;20487;-44
2022/01/22 05:20:04;;;;;;;6.78;3.70;;;;;;;;;;2115518;28;20130;-44
2022/01/22 05:21:09;;;;;;;10.07;4.75;;;;;;;;;;2117496;27;20058;-44
2022/01/22 05:22:18;;;;;;;9.88;5.05;;;;;;;;;;2121339;28;20067;-45
2022/01/22 05:23:22;;;;;;;8.25;4.05;;;;;;;;;;2123964;28;20083;-45
2022/01/22 05:24:28;;;;;;;10.07;5.60;;;;;;;;;;2121171;27;20503;-44
2022/01/22 05:25:34;;;;;;;8.63;4.10;;;;;;;;;;2115492;28;20126;-44
2022/01/22 05:28:29;;;;;;;8.10;3.63;;;;;;;;;;2097170;28;20135;-45
2022/01/22 05:29:59;;;;;;;8.48;4.28;;;;;;;;;;2096996;28;20056;-44
2022/01/22 05:31:07;;;;;;;9.15;5.00;;;;;;;;;;2119714;28;20410;-44
2022/01/22 05:32:24;;;;;;;12.63;4.78;;;;;;;;;;2123931;28;20130;-44
2022/01/22 05:36:54;;;;;;;13.05;5.93;;;;;;;;;;2120642;28;20403;-44
2022/01/22 05:37:32;;;;;;;9.57;4.40;;;;;;;;;;2123741;28;20523;-45
2022/01/22 05:38:34;;;;;;;10.55;4.30;;;;;;;;;;2119214;27;20521;-44
2022/01/22 05:39:36;;;;;;;11.13;4.82;;;;;;;;;;2115196;28;20468;-44
2022/01/22 05:40:37;;;;;;;7.05;3.55;;;;;;;;;;2115362;28;20058;-44
2022/01/22 05:41:39;;;;;;;9.90;4.60;;;;;;;;;;2120020;27;20130;-45
2022/01/22 05:42:40;;;;;;;9.23;4.53;;;;;;;;;;2123677;28;20508;-44
2022/01/22 05:43:42;;;;;;;9.48;4.65;;;;;;;;;;2124883;27;20108;-45
2022/01/22 05:44:43;;;;;;;10.73;4.18;;;;;;;;;;2120069;28;20047;-44
2022/01/22 05:45:44;;;;;;;9.90;3.85;;;;;;;;;;2123607;28;20044;-44
2022/01/22 05:46:45;;;;;;;13.90;5.30;;;;;;;;;;2122527;27;20269;-45
2022/01/22 05:47:47;;;;;;;;;;;;;;;;;;2116614;28;20377;-45
2022/01/22 05:48:48;;;;;;;7.50;3.65;;;;;;;;;;2115185;28;20428;-45
2022/01/22 05:49:49;;;;;;;10.07;4.60;;;;;;;;;;2116676;27;20507;-44
2022/01/22 05:50:54;;;;;;;9.32;4.05;;;;;;;;;;2122955;28;20480;-44
2022/01/22 05:51:57;;;;;;;13.55;5.32;;;;;;;;;;2123834;28;20146;-44
2022/01/22 05:53:02;;;;;;;8.25;4.68;;;;;;;;;;2117982;27;20047;-44
2022/01/22 05:54:31;;;;;;;9.23;5.00;;;;;;;;;;2114953;28;20134;-45
2022/01/22 05:59:35;;;;;;;9.50;4.35;;;;;;;;;;2119128;27;20171;-44
2022/01/22 05:59:44;;;;;;;9.68;5.35;;;;;;;;;;2115162;28;20122;-44
2022/01/22 06:00:48;;;;;;;9.35;4.90;;;;;;;;;;2117249;27;20051;-45
2022/01/22 06:01:49;;;;;;;9.63;4.78;;;;;;;;;;2120780;28;20141;-45
2022/01/22 06:02:51;;;;;;;10.32;4.93;;;;;;;;;;2123586;28;20511;-44
2022/01/22 06:03:52;;;;;;;7.28;4.43;;;;;;;;;;2121862;27;20085;-45
2022/01/22 06:04:53;;;;;;;12.05;5.43;;;;;;;;;;2122187;28;20130;-44
2022/01/22 06:05:54;;;;;;;10.57;5.28;;;;;;;;;;2123460;28;20538;-44
2022/01/22 06:06:55;;;;;;;7.53;3.83;;;;;;;;;;2120283;27;20039;-44
2022/01/22 06:07:56;;;;;;;7.90;4.32;;;;;;;;;;2115188;28;20127;-45
2022/01/22 06:09:01;;;;;;;7.20;4.05;;;;;;;;;;2114951;28;20054;-45
2022/01/22 06:10:14;;;;;;;8.55;3.75;;;;;;;;;;2116467;27;20392;-45
2022/01/22 06:11:21;;;;;;;9.90;4.35;;;;;;;;;;2114909;28;20139;-45
2022/01/22 06:12:40;;;;;;;9.38;4.47;;;;;;;;;;2118596;27;21383;-45
2022/01/22 06:13:44;;;;;;;8.20;4.53;;;;;;;;;;2115029;28;20078;-45
2022/01/22 06:14:46;;;;;;;10.50;3.72;;;;;;;;;;2115191;27;20539;-45
2022/01/22 06:15:46;;;;;;;10.30;4.75;;;;;;;;;;2120118;27;20514;-45
2022/01/22 06:16:48;;;;;;;8.23;3.85;;;;;;;;;;2123663;28;20051;-45
2022/01/22 06:17:49;;;;;;;6.97;3.80;;;;;;;;;;2124338;27;20491;-45
2022/01/22 06:18:51;;;;;;;7.30;3.40;;;;;;;;;;2115614;28;20048;-45
2022/01/22 06:19:52;;;;;;;10.90;4.95;;;;;;;;;;2115189;28;20181;-45
2022/01/22 06:20:53;;;;;;;8.27;4.07;;;;;;;;;;2118546;27;20051;-45
2022/01/22 06:21:54;;;;;;;8.20;4.07;;;;;;;;;;2122106;28;20054;-45
2022/01/22 06:22:55;;;;;;;8.07;3.90;;;;;;;;;;2123612;28;20051;-45
2022/01/22 06:23:56;;;;;;;10.05;5.28;;;;;;;;;;2120385;27;20130;-45
2022/01/22 06:24:57;;;;;;;6.93;4.00;;;;;;;;;;2123402;28;20043;-46
2022/01/22 06:26:00;;;;;;;7.18;4.38;;;;;;;;;;2123331;28;20484;-45
2022/01/22 06:27:01;;;;;;;7.07;4.10;;;;;;;;;;2117787;27;20535;-45
2022/01/22 06:28:02;;;;;;;9.17;5.23;;;;;;;;;;2114938;28;20135;-45
2022/01/22 06:29:03;;;;;;;8.75;4.22;;;;;;;;;;2116891;27;20142;-45
2022/01/22 06:30:06;;;;;;;10.93;6.00;;;;;;;;;;2119874;28;20039;-45
2022/01/22 06:31:08;;;;;;;12.82;6.00;;;;;;;;;;2123250;28;20043;-46
2022/01/22 06:32:09;;;;;;;10.88;5.70;;;;;;;;;;2121460;27;20092;-46
2022/01/22 06:33:10;;;;;;;10.73;6.07;;;;;;;;;;2115723;28;20047;-46
2022/01/22 06:34:11;;;;;;;8.38;4.25;;;;;;;;;;2114816;28;20291;-46
2022/01/22 06:35:12;;;;;;;10.45;4.88;;;;;;;;;;2117878;27;20134;-46
2022/01/22 06:36:14;;;;;;;8.20;4.53;;;;;;;;;;2123145;28;20070;-46
2022/01/22 06:37:15;;;;;;;12.50;5.38;;;;;;;;;;2123467;28;20051;-46
2022/01/22 06:38:17;;;;;;;6.68;3.80;;;;;;;;;;2118551;27;20055;-46
2022/01/22 06:39:20;;;;;;;9.25;5.07;;;;;;;;;;2114780;28;20054;-45
2022/01/22 06:41:44;;;;;;;9.10;4.10;;;;;;;;;;2114971;28;20082;-45
2022/01/22 06:42:45;;;;;;;8.57;3.95;;;;;;;;;;2114820;28;20416;-44
2022/01/22 06:43:50;;;;;;;9.43;4.40;;;;;;;;;;2118233;28;20564;-43
2022/01/22 06:44:51;;;;;;;7.32;4.03;;;;;;;;;;2123237;28;20401;-45
2022/01/22 06:45:53;;;;;;;7.18;3.17;;;;;;;;;;2123325;27;20054;-44
2022/01/22 06:46:54;;;;;;;;;;;;;;;;;;2120914;28;20471;-44
2022/01/22 06:47:55;;;;;;;6.70;2.88;;;;;;;;;;2123340;28;19923;-45
2022/01/22 06:48:56;;;;;;;8.18;4.00;;;;;;;;;;2121559;27;20043;-44
2022/01/22 06:49:57;;;;;;;6.47;3.05;;;;;;;;;;2122128;28;20054;-45
2022/01/22 06:51:00;;;;;;;8.18;3.97;;;;;;;;;;2123098;28;20412;-45
2022/01/22 06:52:01;;;;;;;7.97;3.70;;;;;;;;;;2120109;27;20142;-45
2022/01/22 06:53:02;;;;;;;8.17;3.67;;;;;;;;;;2123428;28;20134;-45
2022/01/22 06:54:04;;;;;;;9.50;4.03;;;;;;;;;;2122978;28;20039;-45
2022/01/22 06:55:05;;;;;;;;;;;;;;;;;;2120559;27;20043;-47
2022/01/22 06:56:07;;;;;;;7.85;3.20;;;;;;;;;;2123145;28;20009;-45
2022/01/22 06:57:09;;;;;;;6.88;3.47;;;;;;;;;;2123506;27;20130;-45
2022/01/22 06:58:10;;;;;;;6.50;4.07;;;;;;;;;;2119860;28;20130;-46
2022/01/22 06:59:11;;;;;;;7.15;3.60;;;;;;;;;;2123157;28;20403;-45
2022/01/22 07:00:12;;;;;;;6.28;3.17;;;;;;;;;;2120207;27;20118;-44
2022/01/22 07:01:14;;;;;;;10.05;3.92;;;;;;;;;;2116950;28;20079;-45
2022/01/22 07:02:17;;;;;;;;;;;;;;;;;;2115194;28;20055;-45
2022/01/22 07:03:18;;;;;;;11.85;4.18;;;;;;;;;;2117472;27;20269;-44
2022/01/22 07:04:19;;;;;;;11.63;4.03;;;;;;;;;;2114703;28;20351;-45
2022/01/22 07:05:20;;;;;;;9.13;3.95;;;;;;;;;;2114626;28;20048;-45
2022/01/22 07:06:21;;;;;;;9.50;4.30;;;;;;;;;;2118932;27;20150;-45
2022/01/22 07:07:22;;;;;;;8.93;3.88;;;;;;;;;;2123124;28;20123;-45
2022/01/22 07:08:24;;;;;;;11.38;4.93;;;;;;;;;;2123482;27;20047;-44
2022/01/22 07:09:25;;;;;;;13.53;5.47;;;;;;;;;;2119384;27;20047;-45
2022/01/22 07:10:26;;;;;;;11.93;4.63;;;;;;;;;;2123156;28;20050;-45
2022/01/22 07:11:27;;;;;;;11.33;5.07;;;;;;;;;;2120851;27;20283;-45
2022/01/22 07:12:28;;;;;;;8.20;4.53;;;;;;;;;;2121027;28;20531;-45